Bethpage, NY (11714)

12:52 AM EST on January 17, 2017 (GMT -0500)
Bethpage | | Change Station

Elev 125 ft 40.75 °N, 73.50 °W | Updated 2 minutes ago

Overcast
Overcast
39.0 °F
Feels Like 37 °F
N
3.3
Wind Variable Wind from SW
Gusts 7.7 mph

Today
High -- | Low -- °F
--% Chance of Precip.
Yesterday
High -- | Low -- °F
Precip. -- in
Pressure 30.29 in
Visibility 10.0 miles
Clouds Overcast 7500 ft
Windchill 37 °F
Dew Point 26 °F
Humidity 58%
Rainfall 0.00 in
Snow Depth Not available.
7:14 AM 4:53 PM
Waning Gibbous, 75% visible
METAR KFRG 170453Z AUTO 24007KT 10SM OVC075 04/M02 A3029 RMK AO2 SLP256 T00441022 400501039
Pressure 30.29 in
Visibility 10.0 miles
Clouds Overcast 7500 ft
Windchill 37 °F
Dew Point 26 °F
Humidity 58%
Rainfall 0.00 in
Snow Depth Not available.
7:14 AM 4:53 PM
Waning Gibbous, 75% visible
METAR KFRG 170453Z AUTO 24007KT 10SM OVC075 04/M02 A3029 RMK AO2 SLP256 T00441022 400501039

Get Your Daily Forecast Email!

Thanks for signing up!

Be on the lookout for a verification email in your inbox.

You'll start receiving the daily forecast at 8 AM.

×

10-Day Weather Forecast

Almanac

Astronomy

Jan. 17, 2017 Rise Set
Actual Time
Civil Twilight
Nautical Twilight
Astronomical Twilight
Moon
Length of Visible Light
Length of Day
Tomorrow will be .
, % of the Moon is Illuminated

Today's Extremes

State Highs State Lows

Community

WunderPhotos

Upload Photos

1,962,540 photos uploaded!

WunderBlog® & News

Nearby

Air Quality

  Air Quality AQ Index Pollutant
Not available.

Snow Depth

Station Depth Elevation

Earthquake Activity

City Distance Mag. Time & Date
Minimum magnitude displayed is 2.5.

Coastal Water Temperatures

Place Temperature

Stations

Nearby Weather Stations

Station Location Temp. Windchill Dew Point Humidity Wind Precip. Elev Updated Type
                   

Watches & Warnings

There are currently no watches in effect.